sensor_id;sensor_type;location;lat;lon;timestamp;pressure;altitude;pressure_sealevel;temperature;humidity
75072;BME280;63651;55.728;38.022;2023-03-01T00:03:44;98577.72;;;11.05;28.73
75072;BME280;63651;55.728;38.022;2023-03-01T00:08:46;98568.06;;;11.09;28.83
75072;BME280;63651;55.728;38.022;2023-03-01T00:13:51;98569.22;;;11.02;28.43
75072;BME280;63651;55.728;38.022;2023-03-01T00:18:54;98563.81;;;11.13;28.79
75072;BME280;63651;55.728;38.022;2023-03-01T00:23:55;98563.34;;;11.16;28.44
75072;BME280;63651;55.728;38.022;2023-03-01T00:28:57;98553.75;;;11.14;28.35
75072;BME280;63651;55.728;38.022;2023-03-01T00:34:01;98555.78;;;11.18;27.94
75072;BME280;63651;55.728;38.022;2023-03-01T00:39:05;98565.72;;;11.25;27.98
75072;BME280;63651;55.728;38.022;2023-03-01T00:44:06;98555.31;;;11.21;28.31
75072;BME280;63651;55.728;38.022;2023-03-01T00:49:08;98555.66;;;11.13;28.20
75072;BME280;63651;55.728;38.022;2023-03-01T00:54:09;98550.13;;;11.20;27.32
75072;BME280;63651;55.728;38.022;2023-03-01T00:59:10;98553.16;;;11.12;27.81
75072;BME280;63651;55.728;38.022;2023-03-01T01:04:12;98549.03;;;11.21;27.52
75072;BME280;63651;55.728;38.022;2023-03-01T01:09:16;98548.31;;;11.14;27.49
75072;BME280;63651;55.728;38.022;2023-03-01T01:14:18;98553.16;;;11.12;28.19
75072;BME280;63651;55.728;38.022;2023-03-01T01:19:20;98559.06;;;11.09;27.76
75072;BME280;63651;55.728;38.022;2023-03-01T01:24:22;98555.41;;;11.15;26.95
75072;BME280;63651;55.728;38.022;2023-03-01T01:29:23;98543.72;;;11.14;27.05
75072;BME280;63651;55.728;38.022;2023-03-01T01:34:24;98571.00;;;11.08;27.03
75072;BME280;63651;55.728;38.022;2023-03-01T01:39:25;98553.16;;;11.12;28.13
75072;BME280;63651;55.728;38.022;2023-03-01T01:44:27;98549.16;;;11.14;27.20
75072;BME280;63651;55.728;38.022;2023-03-01T01:54:50;98560.47;;;11.00;27.21
75072;BME280;63651;55.728;38.022;2023-03-01T01:59:57;98556.94;;;11.11;27.88
75072;BME280;63651;55.728;38.022;2023-03-01T02:05:12;98549.25;;;11.08;27.54
75072;BME280;63651;55.728;38.022;2023-03-01T02:10:15;98569.81;;;11.04;27.39
75072;BME280;63651;55.728;38.022;2023-03-01T02:15:17;98567.22;;;11.09;27.60
75072;BME280;63651;55.728;38.022;2023-03-01T02:25:51;98546.78;;;11.06;27.28
75072;BME280;63651;55.728;38.022;2023-03-01T02:30:54;98549.72;;;11.05;26.84
75072;BME280;63651;55.728;38.022;2023-03-01T02:36:28;98569.44;;;11.00;26.98
75072;BME280;63651;55.728;38.022;2023-03-01T02:41:35;98559.38;;;10.89;26.29
75072;BME280;63651;55.728;38.022;2023-03-01T02:46:44;98554.50;;;10.79;26.99
75072;BME280;63651;55.728;38.022;2023-03-01T02:57:14;98567.72;;;10.76;26.96
75072;BME280;63651;55.728;38.022;2023-03-01T03:02:25;98570.38;;;10.64;27.92
75072;BME280;63651;55.728;38.022;2023-03-01T03:07:41;98545.91;;;10.52;26.75
75072;BME280;63651;55.728;38.022;2023-03-01T03:12:43;98564.59;;;10.61;27.84
75072;BME280;63651;55.728;38.022;2023-03-01T03:17:44;98578.41;;;10.59;26.73
75072;BME280;63651;55.728;38.022;2023-03-01T03:22:47;98567.84;;;10.51;27.15
75072;BME280;63651;55.728;38.022;2023-03-01T03:27:49;98557.91;;;10.45;27.33
75072;BME280;63651;55.728;38.022;2023-03-01T03:32:58;98576.38;;;10.54;27.13
75072;BME280;63651;55.728;38.022;2023-03-01T03:38:03;98559.72;;;10.33;26.71
75072;BME280;63651;55.728;38.022;2023-03-01T03:43:26;98586.50;;;10.47;27.16
75072;BME280;63651;55.728;38.022;2023-03-01T03:48:27;98592.19;;;10.39;26.93
75072;BME280;63651;55.728;38.022;2023-03-01T03:53:29;98587.31;;;10.30;27.55
75072;BME280;63651;55.728;38.022;2023-03-01T03:58:30;98593.78;;;10.29;27.47
75072;BME280;63651;55.728;38.022;2023-03-01T04:03:31;98593.56;;;10.30;27.97
75072;BME280;63651;55.728;38.022;2023-03-01T04:08:33;98592.81;;;10.23;27.39
75072;BME280;63651;55.728;38.022;2023-03-01T04:13:34;98595.06;;;10.26;26.75
75072;BME280;63651;55.728;38.022;2023-03-01T04:18:35;98594.75;;;10.16;26.59
75072;BME280;63651;55.728;38.022;2023-03-01T04:23:37;98597.56;;;10.27;26.28
75072;BME280;63651;55.728;38.022;2023-03-01T04:28:40;98612.09;;;10.33;25.79
75072;BME280;63651;55.728;38.022;2023-03-01T04:33:50;98607.84;;;10.19;26.26
75072;BME280;63651;55.728;38.022;2023-03-01T04:38:52;98622.38;;;10.31;26.48
75072;BME280;63651;55.728;38.022;2023-03-01T04:43:54;98610.69;;;10.31;26.29
75072;BME280;63651;55.728;38.022;2023-03-01T04:48:55;98609.63;;;10.32;25.52
75072;BME280;63651;55.728;38.022;2023-03-01T04:53:56;98608.47;;;10.39;26.05
75072;BME280;63651;55.728;38.022;2023-03-01T04:58:57;98618.31;;;10.40;25.73
75072;BME280;63651;55.728;38.022;2023-03-01T05:03:58;98635.44;;;10.41;25.98
75072;BME280;63651;55.728;38.022;2023-03-01T05:09:03;98629.63;;;10.55;27.20
75072;BME280;63651;55.728;38.022;2023-03-01T05:14:05;98627.03;;;10.61;27.37
75072;BME280;63651;55.728;38.022;2023-03-01T05:19:07;98631.34;;;10.68;27.10
75072;BME280;63651;55.728;38.022;2023-03-01T05:24:16;98633.59;;;10.71;27.00
75072;BME280;63651;55.728;38.022;2023-03-01T05:29:22;98631.84;;;10.77;26.51
75072;BME280;63651;55.728;38.022;2023-03-01T05:34:29;98635.41;;;10.77;26.40
75072;BME280;63651;55.728;38.022;2023-03-01T05:39:31;98636.25;;;10.60;25.34
75072;BME280;63651;55.728;38.022;2023-03-01T05:44:32;98656.31;;;10.58;24.70
75072;BME280;63651;55.728;38.022;2023-03-01T05:49:33;98649.63;;;10.43;24.44
75072;BME280;63651;55.728;38.022;2023-03-01T05:54:35;98654.84;;;10.38;25.03
75072;BME280;63651;55.728;38.022;2023-03-01T05:59:36;98669.00;;;10.46;25.11
75072;BME280;63651;55.728;38.022;2023-03-01T06:04:37;98672.53;;;10.47;26.50
75072;BME280;63651;55.728;38.022;2023-03-01T06:09:38;98678.88;;;10.59;25.39
75072;BME280;63651;55.728;38.022;2023-03-01T06:14:40;98667.06;;;10.29;25.06
75072;BME280;63651;55.728;38.022;2023-03-01T06:19:41;98672.78;;;10.20;24.72
75072;BME280;63651;55.728;38.022;2023-03-01T06:24:42;98680.31;;;10.18;24.86
75072;BME280;63651;55.728;38.022;2023-03-01T06:29:43;98675.28;;;10.22;25.36
75072;BME280;63651;55.728;38.022;2023-03-01T06:34:44;98686.63;;;10.12;25.23
75072;BME280;63651;55.728;38.022;2023-03-01T06:39:45;98678.72;;;10.11;25.14
75072;BME280;63651;55.728;38.022;2023-03-01T06:44:46;98697.00;;;10.22;25.58
75072;BME280;63651;55.728;38.022;2023-03-01T06:49:48;98706.81;;;10.23;25.64
75072;BME280;63651;55.728;38.022;2023-03-01T06:54:49;98702.66;;;10.20;24.33
75072;BME280;63651;55.728;38.022;2023-03-01T06:59:50;98712.25;;;10.16;24.97
75072;BME280;63651;55.728;38.022;2023-03-01T07:04:51;98702.91;;;10.37;25.17
75072;BME280;63651;55.728;38.022;2023-03-01T07:09:52;98702.97;;;10.31;24.82
75072;BME280;63651;55.728;38.022;2023-03-01T07:14:54;98718.41;;;10.30;24.30
75072;BME280;63651;55.728;38.022;2023-03-01T07:19:55;98723.19;;;10.35;24.55
75072;BME280;63651;55.728;38.022;2023-03-01T07:24:56;98729.94;;;10.25;24.77
75072;BME280;63651;55.728;38.022;2023-03-01T07:29:58;98731.91;;;10.62;25.00
75072;BME280;63651;55.728;38.022;2023-03-01T07:34:59;98731.75;;;10.75;24.82
75072;BME280;63651;55.728;38.022;2023-03-01T07:40:00;98738.53;;;10.84;24.72
75072;BME280;63651;55.728;38.022;2023-03-01T07:45:01;98736.88;;;10.83;24.57
75072;BME280;63651;55.728;38.022;2023-03-01T07:50:03;98737.78;;;10.95;24.56
75072;BME280;63651;55.728;38.022;2023-03-01T07:55:05;98740.16;;;11.21;24.21
75072;BME280;63651;55.728;38.022;2023-03-01T08:00:07;98735.69;;;11.27;24.31
75072;BME280;63651;55.728;38.022;2023-03-01T08:05:09;98737.22;;;11.23;24.97
75072;BME280;63651;55.728;38.022;2023-03-01T08:10:11;98725.31;;;11.06;24.35
75072;BME280;63651;55.728;38.022;2023-03-01T08:15:12;98741.31;;;10.96;25.06
75072;BME280;63651;55.728;38.022;2023-03-01T08:20:13;98743.13;;;11.02;24.65
75072;BME280;63651;55.728;38.022;2023-03-01T08:25:16;98746.97;;;10.94;24.47
75072;BME280;63651;55.728;38.022;2023-03-01T08:30:17;98733.91;;;11.03;25.57
75072;BME280;63651;55.728;38.022;2023-03-01T08:35:19;98753.91;;;11.08;24.61
75072;BME280;63651;55.728;38.022;2023-03-01T08:40:20;98762.81;;;11.15;24.85
75072;BME280;63651;55.728;38.022;2023-03-01T08:45:21;98761.97;;;11.15;25.05
75072;BME280;63651;55.728;38.022;2023-03-01T08:50:23;98771.81;;;11.16;24.45
75072;BME280;63651;55.728;38.022;2023-03-01T08:55:25;98752.19;;;10.77;24.42
75072;BME280;63651;55.728;38.022;2023-03-01T09:00:26;98755.59;;;10.91;23.82
75072;BME280;63651;55.728;38.022;2023-03-01T09:05:27;98766.75;;;11.01;24.78
75072;BME280;63651;55.728;38.022;2023-03-01T09:10:28;98766.22;;;11.11;24.58
75072;BME280;63651;55.728;38.022;2023-03-01T09:15:29;98777.75;;;11.25;24.40
75072;BME280;63651;55.728;38.022;2023-03-01T09:20:31;98779.09;;;11.34;24.89
75072;BME280;63651;55.728;38.022;2023-03-01T09:25:34;98776.81;;;11.49;25.27
75072;BME280;63651;55.728;38.022;2023-03-01T09:30:35;98770.16;;;11.45;23.85
75072;BME280;63651;55.728;38.022;2023-03-01T09:35:36;98771.84;;;11.28;23.23
75072;BME280;63651;55.728;38.022;2023-03-01T09:40:42;98770.97;;;11.15;23.07
75072;BME280;63651;55.728;38.022;2023-03-01T09:45:45;98772.09;;;11.26;23.29
75072;BME280;63651;55.728;38.022;2023-03-01T09:50:47;98771.66;;;11.11;23.75
75072;BME280;63651;55.728;38.022;2023-03-01T09:56:14;98766.91;;;11.06;23.52
75072;BME280;63651;55.728;38.022;2023-03-01T10:01:41;98761.16;;;10.96;22.94
75072;BME280;63651;55.728;38.022;2023-03-01T10:06:56;98774.38;;;10.74;23.18
75072;BME280;63651;55.728;38.022;2023-03-01T10:12:00;98780.56;;;10.63;23.35
75072;BME280;63651;55.728;38.022;2023-03-01T10:22:32;98775.72;;;10.47;23.04
75072;BME280;63651;55.728;38.022;2023-03-01T10:27:51;98778.81;;;10.50;23.33
75072;BME280;63651;55.728;38.022;2023-03-01T10:32:53;98778.81;;;10.50;23.86
75072;BME280;63651;55.728;38.022;2023-03-01T10:38:12;98778.44;;;10.65;23.59
75072;BME280;63651;55.728;38.022;2023-03-01T10:43:16;98778.38;;;10.72;24.52
75072;BME280;63651;55.728;38.022;2023-03-01T10:48:20;98796.38;;;11.39;24.41
75072;BME280;63651;55.728;38.022;2023-03-01T10:58:30;98804.47;;;12.06;25.26
75072;BME280;63651;55.728;38.022;2023-03-01T11:03:37;98804.75;;;12.28;24.85
75072;BME280;63651;55.728;38.022;2023-03-01T11:08:46;98800.16;;;12.40;24.87
75072;BME280;63651;55.728;38.022;2023-03-01T11:13:56;98790.44;;;12.67;24.97
75072;BME280;63651;55.728;38.022;2023-03-01T11:19:06;98805.34;;;12.88;24.77
75072;BME280;63651;55.728;38.022;2023-03-01T11:24:14;98799.66;;;12.90;24.47
75072;BME280;63651;55.728;38.022;2023-03-01T11:29:41;98803.69;;;13.10;24.66
75072;BME280;63651;55.728;38.022;2023-03-01T11:34:58;98800.00;;;13.28;24.66
75072;BME280;63651;55.728;38.022;2023-03-01T11:40:25;98812.44;;;13.36;24.31
75072;BME280;63651;55.728;38.022;2023-03-01T11:45:35;98787.44;;;13.27;24.83
75072;BME280;63651;55.728;38.022;2023-03-01T11:50:46;98801.72;;;13.46;24.61
75072;BME280;63651;55.728;38.022;2023-03-01T12:12:01;98811.53;;;13.87;24.00
75072;BME280;63651;55.728;38.022;2023-03-01T12:28:32;98831.13;;;13.84;24.11
75072;BME280;63651;55.728;38.022;2023-03-01T12:50:03;98792.13;;;13.72;24.26
75072;BME280;63651;55.728;38.022;2023-03-01T12:55:33;98811.38;;;13.94;25.36
75072;BME280;63651;55.728;38.022;2023-03-01T13:00:45;98811.19;;;13.84;26.75
75072;BME280;63651;55.728;38.022;2023-03-01T13:11:21;98803.41;;;13.75;25.91
75072;BME280;63651;55.728;38.022;2023-03-01T13:21:31;98812.41;;;13.48;25.67
75072;BME280;63651;55.728;38.022;2023-03-01T13:32:39;98790.53;;;13.59;26.26
75072;BME280;63651;55.728;38.022;2023-03-01T13:37:40;98788.09;;;13.46;26.02
75072;BME280;63651;55.728;38.022;2023-03-01T13:42:46;98795.44;;;13.45;26.22
75072;BME280;63651;55.728;38.022;2023-03-01T13:47:53;98791.31;;;13.43;26.94
75072;BME280;63651;55.728;38.022;2023-03-01T13:53:06;98783.03;;;13.38;26.28
75072;BME280;63651;55.728;38.022;2023-03-01T13:58:23;98780.44;;;13.31;26.13
75072;BME280;63651;55.728;38.022;2023-03-01T14:03:26;98775.84;;;13.20;26.42
75072;BME280;63651;55.728;38.022;2023-03-01T14:08:30;98775.59;;;12.98;26.71
75072;BME280;63651;55.728;38.022;2023-03-01T14:23:58;98780.94;;;13.17;27.26
75072;BME280;63651;55.728;38.022;2023-03-01T14:29:01;98782.72;;;13.11;27.02
75072;BME280;63651;55.728;38.022;2023-03-01T14:34:02;98782.59;;;12.94;26.40
75072;BME280;63651;55.728;38.022;2023-03-01T14:39:17;98775.25;;;12.95;26.42
75072;BME280;63651;55.728;38.022;2023-03-01T14:44:21;98773.94;;;12.97;26.42
75072;BME280;63651;55.728;38.022;2023-03-01T14:49:29;98777.88;;;13.01;26.95
75072;BME280;63651;55.728;38.022;2023-03-01T14:54:41;98771.81;;;12.99;28.01
75072;BME280;63651;55.728;38.022;2023-03-01T14:59:44;98776.44;;;12.99;28.36
75072;BME280;63651;55.728;38.022;2023-03-01T15:04:52;98776.81;;;13.02;29.09
75072;BME280;63651;55.728;38.022;2023-03-01T15:09:53;98772.88;;;13.10;29.84
75072;BME280;63651;55.728;38.022;2023-03-01T15:14:56;98775.50;;;13.05;29.66
75072;BME280;63651;55.728;38.022;2023-03-01T15:19:57;98771.81;;;12.99;30.03
75072;BME280;63651;55.728;38.022;2023-03-01T15:24:59;98777.03;;;13.01;29.73
75072;BME280;63651;55.728;38.022;2023-03-01T15:30:02;98746.25;;;12.77;29.44
75072;BME280;63651;55.728;38.022;2023-03-01T15:35:33;98779.06;;;13.05;29.06
75072;BME280;63651;55.728;38.022;2023-03-01T15:40:49;98770.88;;;13.05;29.06
75072;BME280;63651;55.728;38.022;2023-03-01T15:45:56;98745.63;;;12.87;29.93
75072;BME280;63651;55.728;38.022;2023-03-01T15:50:59;98770.53;;;13.02;30.25
75072;BME280;63651;55.728;38.022;2023-03-01T15:56:00;98779.88;;;13.06;30.76
75072;BME280;63651;55.728;38.022;2023-03-01T16:01:01;98764.59;;;13.05;30.64
75072;BME280;63651;55.728;38.022;2023-03-01T16:06:02;98774.78;;;13.09;30.67
75072;BME280;63651;55.728;38.022;2023-03-01T16:11:16;98761.13;;;13.09;30.74
75072;BME280;63651;55.728;38.022;2023-03-01T16:16:17;98768.59;;;13.14;30.42
75072;BME280;63651;55.728;38.022;2023-03-01T16:21:25;98768.50;;;13.09;30.05
75072;BME280;63651;55.728;38.022;2023-03-01T17:16:42;98722.53;;;13.01;nan
75072;BME280;63651;55.728;38.022;2023-03-01T17:21:44;98722.63;;;12.94;nan
75072;BME280;63651;55.728;38.022;2023-03-01T17:26:45;98731.53;;;12.90;nan
75072;BME280;63651;55.728;38.022;2023-03-01T17:31:46;98728.66;;;12.96;nan
75072;BME280;63651;55.728;38.022;2023-03-01T17:36:48;98726.41;;;12.93;nan
75072;BME280;63651;55.728;38.022;2023-03-01T17:41:52;98725.47;;;12.99;nan
75072;BME280;63651;55.728;38.022;2023-03-01T17:46:53;98730.69;;;13.01;nan
75072;BME280;63651;55.728;38.022;2023-03-01T17:51:54;98713.47;;;13.24;nan
75072;BME280;63651;55.728;38.022;2023-03-01T17:56:56;98722.38;;;13.07;nan
75072;BME280;63651;55.728;38.022;2023-03-01T18:01:58;98715.16;;;13.01;nan
75072;BME280;63651;55.728;38.022;2023-03-01T18:07:01;98713.63;;;13.05;nan
75072;BME280;63651;55.728;38.022;2023-03-01T18:12:02;98710.88;;;13.05;nan
75072;BME280;63651;55.728;38.022;2023-03-01T18:17:03;98704.25;;;13.01;nan
75072;BME280;63651;55.728;38.022;2023-03-01T18:22:11;98713.28;;;13.02;nan
75072;BME280;63651;55.728;38.022;2023-03-01T18:27:12;98714.94;;;13.03;nan
75072;BME280;63651;55.728;38.022;2023-03-01T18:32:13;98704.13;;;12.96;nan
75072;BME280;63651;55.728;38.022;2023-03-01T18:37:14;98706.50;;;13.04;nan
75072;BME280;63651;55.728;38.022;2023-03-01T18:42:16;98706.84;;;12.96;nan
75072;BME280;63651;55.728;38.022;2023-03-01T18:47:20;98696.28;;;13.00;nan
75072;BME280;63651;55.728;38.022;2023-03-01T18:52:21;98697.59;;;12.97;nan
75072;BME280;63651;55.728;38.022;2023-03-01T18:57:22;98696.28;;;13.00;nan
75072;BME280;63651;55.728;38.022;2023-03-01T19:02:23;98685.19;;;13.01;nan
75072;BME280;63651;55.728;38.022;2023-03-01T19:07:24;98691.09;;;12.98;nan
75072;BME280;63651;55.728;38.022;2023-03-01T19:12:25;98691.72;;;13.00;nan
75072;BME280;63651;55.728;38.022;2023-03-01T19:17:28;98680.31;;;12.92;nan
75072;BME280;63651;55.728;38.022;2023-03-01T19:22:30;98675.22;;;12.95;nan
75072;BME280;63651;55.728;38.022;2023-03-01T19:27:32;98669.41;;;12.92;nan
75072;BME280;63651;55.728;38.022;2023-03-01T19:32:33;98680.19;;;12.98;nan
75072;BME280;63651;55.728;38.022;2023-03-01T19:37:34;98672.63;;;13.00;nan
75072;BME280;63651;55.728;38.022;2023-03-01T19:42:35;98674.03;;;13.03;nan
75072;BME280;63651;55.728;38.022;2023-03-01T19:47:36;98666.56;;;12.98;nan
75072;BME280;63651;55.728;38.022;2023-03-01T19:52:37;98660.03;;;12.99;nan
75072;BME280;63651;55.728;38.022;2023-03-01T19:57:38;98667.75;;;13.02;nan
75072;BME280;63651;55.728;38.022;2023-03-01T20:02:39;98658.50;;;13.03;nan
75072;BME280;63651;55.728;38.022;2023-03-01T20:07:40;98666.09;;;13.01;nan
75072;BME280;63651;55.728;38.022;2023-03-01T20:12:42;98663.47;;;13.06;nan
75072;BME280;63651;55.728;38.022;2023-03-01T20:17:43;98654.47;;;13.06;nan
75072;BME280;63651;55.728;38.022;2023-03-01T20:22:44;98657.69;;;13.03;nan
75072;BME280;63651;55.728;38.022;2023-03-01T20:27:45;98653.63;;;13.05;nan
75072;BME280;63651;55.728;38.022;2023-03-01T20:32:47;98652.69;;;13.00;nan
75072;BME280;63651;55.728;38.022;2023-03-01T20:37:50;98633.97;;;13.03;nan
75072;BME280;63651;55.728;38.022;2023-03-01T20:42:59;98643.81;;;13.04;nan
75072;BME280;63651;55.728;38.022;2023-03-01T20:48:00;98643.56;;;13.06;nan
75072;BME280;63651;55.728;38.022;2023-03-01T20:53:01;98645.22;;;13.07;nan
75072;BME280;63651;55.728;38.022;2023-03-01T20:58:02;98644.97;;;13.08;nan
75072;BME280;63651;55.728;38.022;2023-03-01T21:03:03;98633.72;;;13.05;nan
75072;BME280;63651;55.728;38.022;2023-03-01T21:08:04;98625.53;;;13.05;nan
75072;BME280;63651;55.728;38.022;2023-03-01T21:13:05;98624.00;;;13.09;nan
75072;BME280;63651;55.728;38.022;2023-03-01T21:18:06;98634.88;;;13.09;nan
75072;BME280;63651;55.728;38.022;2023-03-01T21:23:07;98639.50;;;13.08;nan
75072;BME280;63651;55.728;38.022;2023-03-01T21:28:09;98636.22;;;13.06;nan
75072;BME280;63651;55.728;38.022;2023-03-01T21:33:10;98629.59;;;13.02;nan
75072;BME280;63651;55.728;38.022;2023-03-01T21:38:11;98641.41;;;13.08;nan
75072;BME280;63651;55.728;38.022;2023-03-01T21:43:12;98644.72;;;13.10;nan
75072;BME280;63651;55.728;38.022;2023-03-01T21:48:13;98645.31;;;13.12;nan
75072;BME280;63651;55.728;38.022;2023-03-01T21:53:14;98639.75;;;13.07;nan
75072;BME280;63651;55.728;38.022;2023-03-01T21:58:15;98640.34;;;13.09;nan
75072;BME280;63651;55.728;38.022;2023-03-01T22:03:16;98642.59;;;13.12;nan
75072;BME280;63651;55.728;38.022;2023-03-01T22:08:17;98637.72;;;13.14;nan
75072;BME280;63651;55.728;38.022;2023-03-01T22:13:19;98632.75;;;13.11;nan
75072;BME280;63651;55.728;38.022;2023-03-01T22:18:20;98637.13;;;13.12;nan
75072;BME280;63651;55.728;38.022;2023-03-01T22:23:21;98645.06;;;13.13;nan
75072;BME280;63651;55.728;38.022;2023-03-01T22:28:22;98634.16;;;13.13;nan
75072;BME280;63651;55.728;38.022;2023-03-01T22:33:23;98644.47;;;13.11;nan
75072;BME280;63651;55.728;38.022;2023-03-01T22:38:24;98649.69;;;13.13;nan
75072;BME280;63651;55.728;38.022;2023-03-01T22:43:26;98646.13;;;13.12;nan
75072;BME280;63651;55.728;38.022;2023-03-01T22:48:27;98651.59;;;13.12;nan
75072;BME280;63651;55.728;38.022;2023-03-01T22:53:29;98664.16;;;13.13;nan
75072;BME280;63651;55.728;38.022;2023-03-01T22:58:30;98660.72;;;13.18;nan
75072;BME280;63651;55.728;38.022;2023-03-01T23:03:31;98655.53;;;13.17;nan
75072;BME280;63651;55.728;38.022;2023-03-01T23:08:32;98649.81;;;13.18;nan
75072;BME280;63651;55.728;38.022;2023-03-01T23:13:33;98647.44;;;13.10;nan
75072;BME280;63651;55.728;38.022;2023-03-01T23:18:35;98669.97;;;13.17;nan
75072;BME280;63651;55.728;38.022;2023-03-01T23:23:37;98669.38;;;13.15;nan
75072;BME280;63651;55.728;38.022;2023-03-01T23:28:38;98667.94;;;13.12;nan
75072;BME280;63651;55.728;38.022;2023-03-01T23:33:43;98662.84;;;13.16;nan
75072;BME280;63651;55.728;38.022;2023-03-01T23:38:46;98661.44;;;13.13;nan
75072;BME280;63651;55.728;38.022;2023-03-01T23:43:50;98671.25;;;13.14;nan
75072;BME280;63651;55.728;38.022;2023-03-01T23:48:52;98666.06;;;13.13;nan
75072;BME280;63651;55.728;38.022;2023-03-01T23:53:59;98646.03;;;13.07;nan
75072;BME280;63651;55.728;38.022;2023-03-01T23:59:04;98662.38;;;13.19;nan
